Palos Hills, Illinois
Current Conditions -  °F | °C
As of 9:53 PM on Saturday 24 Jan 2015 (Local Time) from KMDW Reporting Station
Overcast Overcast  
Wind Chill: 36°   Ceiling: 25000
Heat Index: 36°   Visibility: 10mi
Dew Point: 31°   Wind: 0mph
Humidity: 82%   Direction: NA
Pressure: 29.68"   Gusts: NA
Location:  41.7°N, 87.83°W
Report Text: KMDW 250353Z 00000KT 10SM SCT120 OVC250 02/M01 A2968 RMK AO2 SLP059 T00221006
Loading
Personal Weather Stations






























Interactive Weather Map New forecast layout! Learn more

10-Day Weather Forecast

Advertisements
Track Severe Weather on mobile